Time;durP1;ratioP1;P1;durP2;ratioP2;P2;SDS_P1;SDS_P2;PMS_P1;PMS_P2;Temp;Humidity;BMP_temperature;BMP_pressure;BME280_temperature;BME280_humidity;BME280_pressure;Samples;Min_cycle;Max_cycle;Signal;HPM_P1;HPM_P2
2021/12/05 00:23:12;;;;;;;5.85;2.95;;;20.00;55.40;;;;;;5017168;28;20054;-61
2021/12/05 00:25:37;;;;;;;6.35;2.88;;;20.00;55.40;;;;;;5034205;28;20060;-61
2021/12/05 00:31:12;;;;;;;6.32;2.70;;;20.00;55.40;;;;;;5034490;28;20140;-61
2021/12/05 00:33:56;;;;;;;6.88;2.88;;;19.90;55.40;;;;;;5033371;28;20520;-61
2021/12/05 00:42:07;;;;;;;7.15;2.88;;;19.90;55.30;;;;;;5016201;28;20121;-61
2021/12/05 00:55:38;;;;;;;5.13;2.70;;;19.80;55.20;;;;;;5033333;28;20470;-61
2021/12/05 00:59:03;;;;;;;5.20;2.75;;;19.80;55.20;;;;;;5033767;28;20049;-61
2021/12/05 01:01:32;;;;;;;5.10;2.55;;;19.80;55.20;;;;;;5032640;28;20524;-61
2021/12/05 01:07:01;;;;;;;5.35;2.35;;;19.80;55.20;;;;;;5034176;28;20194;-61
2021/12/05 01:12:15;;;;;;;7.78;2.60;;;19.70;55.00;;;;;;5033164;28;20561;-61
2021/12/05 01:17:42;;;;;;;7.25;2.45;;;19.70;54.90;;;;;;5033435;28;19925;-61
2021/12/05 01:20:11;;;;;;;5.80;2.47;;;19.70;55.10;;;;;;5015857;28;20128;-61
2021/12/05 01:22:42;;;;;;;6.13;2.33;;;19.70;55.00;;;;;;5032949;28;20124;-61
2021/12/05 01:25:39;;;;;;;4.68;2.08;;;19.70;55.00;;;;;;5033561;28;20054;-61
2021/12/05 01:28:03;;;;;;;5.35;2.47;;;19.70;54.90;;;;;;5032406;28;20060;-61
2021/12/05 01:33:22;;;;;;;6.35;2.20;;;19.70;55.00;;;;;;5033554;28;20049;-61
2021/12/05 01:36:09;;;;;;;5.82;2.17;;;19.60;54.80;;;;;;5014851;28;20436;-61
2021/12/05 01:47:21;;;;;;;5.07;2.30;;;19.60;54.90;;;;;;5033101;28;20084;-61
2021/12/05 01:50:08;;;;;;;4.25;2.08;;;19.60;54.90;;;;;;5032160;28;20045;-61
2021/12/05 02:35:41;;;;;;;3.22;1.48;;;19.60;54.70;;;;;;5032391;28;20077;-61
2021/12/05 02:38:37;;;;;;;4.97;1.63;;;19.50;54.60;;;;;;5032647;28;20042;-61
2021/12/05 02:41:19;;;;;;;5.22;2.10;;;19.60;54.60;;;;;;5031254;28;20143;-61
2021/12/05 02:43:48;;;;;;;3.60;1.50;;;19.60;54.70;;;;;;5032387;28;20057;-61
2021/12/05 02:46:15;;;;;;;4.65;1.55;;;19.60;54.70;;;;;;5031959;28;20124;-61
2021/12/05 02:48:41;;;;;;;4.43;1.52;;;19.60;54.60;;;;;;5032062;28;20461;-61
2021/12/05 02:51:10;;;;;;;3.42;1.45;;;19.60;54.60;;;;;;5032416;28;20080;-61
2021/12/05 02:53:43;;;;;;;6.20;2.08;;;19.60;54.60;;;;;;5031802;28;20054;-61
2021/12/05 02:56:10;;;;;;;4.65;1.55;;;19.60;54.60;;;;;;5014710;28;20045;-61
2021/12/05 03:01:19;;;;;;;3.78;1.80;;;19.70;54.60;;;;;;5022786;28;20150;-61
2021/12/05 03:03:44;;;;;;;3.15;1.50;;;19.70;54.50;;;;;;5012315;28;20095;-61
2021/12/05 03:06:17;;;;;;;3.63;1.33;;;19.70;54.50;;;;;;5011828;28;20038;-61
2021/12/05 03:08:43;;;;;;;4.43;1.52;;;19.70;54.50;;;;;;5011394;28;20393;-61
2021/12/05 03:11:09;;;;;;;3.75;1.48;;;19.70;54.50;;;;;;5012636;28;20053;-61
2021/12/05 03:13:36;;;;;;;5.35;1.40;;;19.70;54.50;;;;;;5012269;28;20058;-61
2021/12/05 03:16:03;;;;;;;4.35;1.63;;;19.70;54.40;;;;;;5011299;28;20077;-61
2021/12/05 03:18:28;;;;;;;5.95;1.95;;;19.80;54.50;;;;;;5012493;28;20121;-61
2021/12/05 03:20:54;;;;;;;2.72;1.20;;;19.80;54.50;;;;;;4994357;28;20140;-61
2021/12/05 03:23:19;;;;;;;3.22;1.52;;;19.80;54.50;;;;;;5012280;28;20048;-61
2021/12/05 03:25:45;;;;;;;4.63;1.50;;;19.70;54.30;;;;;;5012297;28;20046;-61
2021/12/05 03:28:10;;;;;;;4.15;1.45;;;19.80;54.40;;;;;;5011718;28;20112;-61
2021/12/05 03:30:36;;;;;;;4.15;1.50;;;19.80;54.40;;;;;;5012224;28;20038;-61
2021/12/05 03:33:02;;;;;;;3.15;1.25;;;19.80;54.40;;;;;;4994262;28;20449;-62
2021/12/05 03:35:28;;;;;;;2.72;1.20;;;19.80;54.40;;;;;;4993994;28;20049;-61
2021/12/05 03:37:54;;;;;;;4.60;1.50;;;19.80;54.40;;;;;;5012250;28;20052;-61
2021/12/05 03:40:21;;;;;;;4.22;1.45;;;19.90;54.40;;;;;;5013456;28;20042;-61
2021/12/05 03:42:47;;;;;;;4.35;1.48;;;19.80;54.30;;;;;;5014796;28;20046;-61
2021/12/05 03:45:18;;;;;;;3.58;1.27;;;19.90;54.40;;;;;;5015595;28;20111;-61
2021/12/05 03:47:43;;;;;;;3.10;1.40;;;19.80;54.30;;;;;;5015588;28;20038;-61
2021/12/05 03:50:09;;;;;;;5.55;1.42;;;19.80;54.30;;;;;;5015030;28;20095;-61
2021/12/05 03:52:35;;;;;;;2.88;1.20;;;19.90;54.30;;;;;;5015442;28;20401;-60
2021/12/05 03:55:01;;;;;;;4.65;1.30;;;19.90;54.30;;;;;;5015292;28;20046;-61
2021/12/05 03:57:26;;;;;;;3.58;1.45;;;19.90;54.20;;;;;;5014591;28;20129;-61
2021/12/05 03:59:52;;;;;;;3.63;1.25;;;19.90;54.20;;;;;;4997460;28;20196;-61
2021/12/05 04:02:17;;;;;;;5.25;1.55;;;19.90;54.20;;;;;;5015598;28;20057;-61
2021/12/05 04:04:43;;;;;;;3.85;1.42;;;19.90;54.20;;;;;;5014088;28;20037;-61
2021/12/05 04:07:08;;;;;;;4.35;1.38;;;19.90;54.20;;;;;;4997610;28;20482;-61
2021/12/05 04:09:35;;;;;;;2.75;1.08;;;19.90;54.10;;;;;;5015521;28;20049;-61
2021/12/05 04:12:02;;;;;;;4.00;1.13;;;19.90;54.10;;;;;;5014093;28;20148;-61
2021/12/05 04:14:33;;;;;;;3.92;1.65;;;20.00;54.20;;;;;;5015040;28;20042;-61
2021/12/05 04:16:59;;;;;;;3.28;1.20;;;20.00;54.10;;;;;;5014754;28;20080;-61
2021/12/05 04:19:24;;;;;;;3.90;1.20;;;20.00;54.10;;;;;;5014444;28;20053;-61
2021/12/05 04:21:50;;;;;;;3.05;1.17;;;20.00;54.10;;;;;;5014741;28;20038;-61
2021/12/05 04:24:15;;;;;;;3.15;1.27;;;20.00;54.10;;;;;;5014182;28;20069;-61
2021/12/05 04:26:41;;;;;;;3.63;1.00;;;20.00;54.10;;;;;;5014523;28;20072;-61
2021/12/05 04:29:07;;;;;;;4.28;1.45;;;20.00;54.00;;;;;;4997129;28;20092;-61
2021/12/05 04:31:33;;;;;;;3.47;1.23;;;20.00;54.00;;;;;;5014244;28;20083;-61
2021/12/05 04:33:58;;;;;;;3.85;1.50;;;20.00;54.00;;;;;;5014333;28;20046;-61
2021/12/05 04:36:24;;;;;;;3.75;1.20;;;20.00;53.90;;;;;;4997221;28;20545;-61
2021/12/05 04:38:49;;;;;;;4.28;1.25;;;20.00;53.90;;;;;;5013812;28;20045;-61
2021/12/05 04:41:15;;;;;;;4.50;1.30;;;20.00;53.90;;;;;;5014841;28;20046;-61
2021/12/05 04:43:41;;;;;;;3.85;1.30;;;20.00;53.90;;;;;;5014299;28;20049;-61
2021/12/05 04:46:12;;;;;;;6.45;1.58;;;20.00;53.80;;;;;;4996204;28;20046;-61
2021/12/05 04:48:38;;;;;;;3.20;1.20;;;20.00;53.80;;;;;;4997188;28;20064;-61
2021/12/05 04:51:04;;;;;;;2.63;1.02;;;20.10;53.80;;;;;;4996659;28;20494;-61
2021/12/05 04:53:30;;;;;;;2.65;1.10;;;20.10;53.80;;;;;;5013264;28;20077;-61
2021/12/05 04:55:56;;;;;;;4.15;1.38;;;20.10;53.80;;;;;;5014262;28;20132;-61
2021/12/05 04:58:23;;;;;;;4.18;1.17;;;20.10;53.80;;;;;;5014343;28;20116;-61
2021/12/05 05:00:49;;;;;;;3.95;1.35;;;20.10;53.80;;;;;;5012492;28;20066;-61
2021/12/05 05:03:15;;;;;;;4.32;1.50;;;20.10;53.70;;;;;;5013936;28;20481;-61
2021/12/05 05:05:46;;;;;;;3.67;1.15;;;20.10;53.70;;;;;;5012183;28;20042;-61
2021/12/05 05:08:12;;;;;;;3.63;1.30;;;20.10;53.70;;;;;;5013455;28;20049;-61
2021/12/05 05:10:37;;;;;;;4.60;1.50;;;20.10;53.70;;;;;;5014011;28;20050;-61
2021/12/05 05:13:03;;;;;;;3.88;1.20;;;20.10;53.70;;;;;;5013754;28;20057;-61
2021/12/05 05:15:30;;;;;;;4.70;1.30;;;20.10;53.70;;;;;;5013148;28;20045;-61
2021/12/05 05:17:56;;;;;;;5.35;1.38;;;20.10;53.60;;;;;;4995962;28;20387;-61
2021/12/05 05:20:27;;;;;;;3.67;1.27;;;20.10;53.60;;;;;;5014023;28;20053;-61
2021/12/05 05:39:14;;;;;;;4.72;1.40;;;20.10;53.60;;;;;;4995966;28;20054;-61
2021/12/05 05:44:44;;;;;;;3.70;1.02;;;20.20;53.60;;;;;;4996031;28;20132;-61
2021/12/05 05:47:31;;;;;;;5.15;1.33;;;20.20;53.60;;;;;;4996261;28;20058;-61
2021/12/05 05:49:59;;;;;;;5.90;1.25;;;20.20;53.60;;;;;;5012526;28;20053;-61
2021/12/05 05:52:26;;;;;;;3.17;1.10;;;20.20;53.60;;;;;;5013258;28;20192;-61
2021/12/05 05:54:54;;;;;;;2.88;1.20;;;20.20;53.60;;;;;;5013288;28;20052;-61
2021/12/05 05:57:26;;;;;;;3.90;1.48;;;20.20;53.60;;;;;;5012642;28;20050;-61
2021/12/05 06:00:07;;;;;;;4.10;1.30;;;20.20;53.60;;;;;;5012690;28;20054;-61
2021/12/05 06:05:17;;;;;;;4.78;1.40;;;20.20;53.60;;;;;;5012417;28;20050;-61
2021/12/05 06:07:45;;;;;;;2.85;1.00;;;20.20;53.60;;;;;;4995440;28;20046;-61
2021/12/05 06:10:11;;;;;;;3.28;1.10;;;20.20;53.60;;;;;;5012669;28;20038;-61
2021/12/05 06:12:38;;;;;;;4.30;1.60;;;20.20;53.50;;;;;;5012957;28;20061;-61
2021/12/05 06:15:05;;;;;;;4.72;1.48;;;20.30;53.50;;;;;;5012912;28;20050;-61
2021/12/05 06:17:30;;;;;;;2.55;0.90;;;20.20;53.40;;;;;;4994619;28;20045;-61
2021/12/05 06:19:57;;;;;;;5.05;1.83;;;20.20;53.40;;;;;;5012826;28;20042;-61
2021/12/05 06:22:22;;;;;;;2.45;0.98;;;20.30;53.50;;;;;;5013178;28;20050;-61
2021/12/05 06:24:48;;;;;;;3.90;1.08;;;20.20;53.40;;;;;;5012134;28;20045;-61
2021/12/05 06:27:13;;;;;;;3.10;1.02;;;20.30;53.40;;;;;;4995233;28;20065;-61
2021/12/05 06:29:46;;;;;;;4.25;1.27;;;20.20;53.40;;;;;;5012787;28;20085;-61
2021/12/05 06:37:44;;;;;;;5.40;1.25;;;20.30;53.30;;;;;;4995075;28;20042;-62
2021/12/05 06:40:37;;;;;;;3.13;1.10;;;20.30;53.30;;;;;;5012273;28;20041;-61
2021/12/05 06:45:57;;;;;;;3.72;1.08;;;20.30;53.30;;;;;;4994963;28;20046;-61
2021/12/05 06:48:23;;;;;;;3.53;1.05;;;20.30;53.30;;;;;;5012894;28;20082;-61
2021/12/05 06:50:48;;;;;;;4.28;1.13;;;20.30;53.30;;;;;;5012265;28;20089;-61
2021/12/05 06:53:14;;;;;;;3.92;1.20;;;20.30;53.20;;;;;;4994323;28;20046;-61
2021/12/05 06:55:39;;;;;;;3.35;1.20;;;20.30;53.20;;;;;;5012586;28;20038;-61
2021/12/05 06:58:05;;;;;;;4.97;1.27;;;20.30;53.20;;;;;;4994499;28;20141;-61
2021/12/05 07:00:31;;;;;;;3.17;1.08;;;20.30;53.20;;;;;;4994297;28;20508;-61
2021/12/05 07:02:57;;;;;;;4.20;1.30;;;20.30;53.20;;;;;;4994727;28;20129;-61
2021/12/05 07:05:41;;;;;;;3.58;1.17;;;20.30;53.10;;;;;;4995003;28;20136;-61
2021/12/05 07:08:07;;;;;;;4.50;1.10;;;20.40;53.20;;;;;;5011980;28;20050;-61
2021/12/05 07:10:39;;;;;;;2.92;1.00;;;20.40;53.20;;;;;;4995247;28;20122;-61
2021/12/05 07:13:44;;;;;;;5.15;1.27;;;20.30;53.10;;;;;;4994805;28;20561;-61
2021/12/05 07:21:28;;;;;;;3.78;1.38;;;20.40;53.10;;;;;;5014749;28;20115;-61
2021/12/05 07:24:17;;;;;;;4.72;1.20;;;20.40;53.10;;;;;;4998214;28;20041;-61
2021/12/05 07:40:40;;;;;;;3.58;1.10;;;20.40;53.00;;;;;;5016036;28;20046;-61
2021/12/05 07:43:08;;;;;;;4.43;2.05;;;20.40;52.90;;;;;;4997380;28;20465;-62
2021/12/05 07:45:44;;;;;;;3.38;1.30;;;20.50;53.00;;;;;;5015842;28;20045;-63
2021/12/05 07:48:13;;;;;;;3.97;1.10;;;20.50;53.00;;;;;;5015465;28;20042;-62
2021/12/05 07:50:55;;;;;;;2.78;1.17;;;20.40;52.90;;;;;;4998265;28;20057;-62
2021/12/05 07:53:30;;;;;;;5.13;1.38;;;20.40;52.90;;;;;;4997850;28;20046;-62
2021/12/05 07:56:03;;;;;;;4.65;1.00;;;20.50;53.00;;;;;;5014846;28;20050;-62
2021/12/05 07:58:49;;;;;;;4.45;1.15;;;20.40;52.90;;;;;;4997972;28;20072;-62
2021/12/05 08:15:11;;;;;;;3.85;0.93;;;20.50;53.70;;;;;;4997283;28;20050;-63
2021/12/05 08:17:38;;;;;;;4.57;1.20;;;20.50;53.70;;;;;;4997021;28;20127;-63
2021/12/05 08:20:05;;;;;;;4.28;1.00;;;20.50;53.80;;;;;;4997303;28;20041;-62
2021/12/05 08:22:31;;;;;;;5.85;1.08;;;20.50;54.00;;;;;;4997344;28;20042;-63
2021/12/05 08:25:00;;;;;;;4.80;1.10;;;20.50;54.00;;;;;;5014098;28;20133;-63
2021/12/05 08:27:26;;;;;;;2.83;0.88;;;20.50;54.20;;;;;;4996267;28;20465;-61
2021/12/05 08:29:56;;;;;;;4.35;1.40;;;20.50;54.20;;;;;;5014459;28;20078;-63
2021/12/05 08:32:49;;;;;;;5.43;1.27;;;20.50;54.30;;;;;;4996470;28;20049;-61
2021/12/05 08:38:32;;;;;;;4.82;1.30;;;20.60;54.30;;;;;;5014102;28;20049;-62
2021/12/05 08:43:38;;;;;;;1.90;0.80;;;20.60;54.40;;;;;;5014202;28;20105;-61
2021/12/05 09:21:59;;;;;;;5.55;1.17;;;20.70;54.80;;;;;;5017404;28;20121;-60
2021/12/05 09:29:52;;;;;;;3.15;1.00;;;20.70;54.80;;;;;;5020321;28;20038;-61
2021/12/05 10:10:16;;;;;;;8.48;1.20;;;20.70;54.00;;;;;;5032055;28;20140;-61
2021/12/05 10:13:01;;;;;;;6.63;1.30;;;20.80;54.10;;;;;;5014742;28;20050;-61
2021/12/05 10:37:17;;;;;;;3.58;0.95;;;20.90;54.80;;;;;;5003818;28;20049;-62
2021/12/05 10:39:43;;;;;;;2.50;0.80;;;20.90;54.80;;;;;;5004549;28;20513;-61
2021/12/05 10:42:38;;;;;;;2.88;1.10;;;20.90;54.80;;;;;;5006100;28;20045;-62
2021/12/05 10:45:05;;;;;;;3.10;0.90;;;20.90;54.80;;;;;;5001106;28;20041;-62
2021/12/05 10:47:42;;;;;;;6.20;1.13;;;20.90;54.70;;;;;;5021319;28;20069;-62
2021/12/05 10:50:26;;;;;;;4.90;0.88;;;20.90;54.70;;;;;;5000185;28;20383;-61
2021/12/05 10:53:29;;;;;;;3.25;1.10;;;20.90;54.60;;;;;;5015876;28;20045;-61
2021/12/05 10:55:57;;;;;;;2.47;0.90;;;21.00;54.70;;;;;;5016614;28;20041;-63
2021/12/05 10:58:28;;;;;;;3.90;1.13;;;20.90;54.60;;;;;;5015866;28;20045;-61
2021/12/05 11:01:23;;;;;;;3.10;0.80;;;20.90;54.60;;;;;;5016028;28;20084;-62
2021/12/05 11:03:59;;;;;;;2.40;0.75;;;21.00;54.70;;;;;;5002979;28;20490;-62
2021/12/05 11:06:31;;;;;;;3.92;0.85;;;21.00;54.60;;;;;;5014047;28;20042;-61
2021/12/05 11:09:06;;;;;;;3.33;1.00;;;21.00;54.60;;;;;;4997896;28;20481;-61
2021/12/05 11:11:32;;;;;;;2.83;0.85;;;21.00;54.60;;;;;;5015596;28;20088;-61
2021/12/05 11:13:59;;;;;;;3.25;0.85;;;21.00;54.60;;;;;;5014978;28;20100;-62
2021/12/05 11:16:39;;;;;;;3.25;0.80;;;21.00;54.60;;;;;;5015993;28;20081;-62
2021/12/05 11:19:21;;;;;;;4.25;0.82;;;21.00;54.70;;;;;;5015539;28;20527;-62
2021/12/05 11:21:51;;;;;;;2.17;0.70;;;21.00;54.60;;;;;;4997362;28;20486;-62
2021/12/05 11:24:19;;;;;;;2.58;0.70;;;21.00;54.60;;;;;;5015680;28;20049;-62
2021/12/05 11:27:04;;;;;;;3.45;0.88;;;21.00;54.70;;;;;;5014602;28;20077;-61
2021/12/05 11:29:40;;;;;;;3.38;0.85;;;21.10;54.70;;;;;;5014500;28;20505;-62
2021/12/05 11:32:10;;;;;;;2.90;0.82;;;21.10;54.70;;;;;;4997861;28;20085;-62
2021/12/05 11:34:36;;;;;;;1.85;0.63;;;21.10;54.70;;;;;;5014466;28;20494;-61
2021/12/05 11:37:02;;;;;;;2.13;0.80;;;21.10;54.70;;;;;;5015246;28;20049;-61
2021/12/05 11:39:27;;;;;;;3.10;0.88;;;21.10;54.60;;;;;;5015607;28;20053;-62
2021/12/05 11:41:53;;;;;;;2.85;0.93;;;21.10;54.50;;;;;;5014824;28;20076;-61
2021/12/05 11:44:19;;;;;;;4.95;0.80;;;21.10;54.40;;;;;;4997991;28;20045;-61
2021/12/05 11:46:45;;;;;;;1.83;0.70;;;21.10;54.40;;;;;;4997783;28;20113;-61
2021/12/05 11:49:13;;;;;;;4.07;0.93;;;21.10;54.20;;;;;;5015066;28;20041;-61
2021/12/05 11:51:44;;;;;;;;;;;21.20;54.30;;;;;;5015882;28;20069;-61
2021/12/05 11:54:27;;;;;;;2.45;0.80;;;21.10;54.10;;;;;;4997823;28;20008;-61
2021/12/05 11:56:54;;;;;;;2.63;0.90;;;21.10;54.10;;;;;;4995848;28;20057;-62
2021/12/05 11:59:35;;;;;;;3.70;0.80;;;21.10;54.10;;;;;;4997911;28;20065;-61
2021/12/05 12:02:12;;;;;;;4.40;0.95;;;21.10;54.10;;;;;;5032986;28;20045;-61
2021/12/05 12:04:49;;;;;;;4.47;0.80;;;21.10;53.90;;;;;;5017577;28;20544;-61
2021/12/05 12:07:23;;;;;;;4.10;0.80;;;21.10;53.90;;;;;;4997530;28;20049;-61
2021/12/05 12:09:52;;;;;;;4.57;0.82;;;21.10;53.90;;;;;;5014100;28;20137;-61
2021/12/05 12:12:17;;;;;;;;;;;21.10;53.90;;;;;;5014551;28;20414;-61
2021/12/05 12:14:43;;;;;;;4.50;1.05;;;21.10;53.90;;;;;;5014333;28;19928;-61
2021/12/05 12:17:14;;;;;;;3.88;0.80;;;21.10;53.90;;;;;;5013987;28;20052;-61
2021/12/05 12:19:40;;;;;;;4.13;0.55;;;21.10;53.70;;;;;;4997210;28;20085;-61
2021/12/05 12:22:07;;;;;;;3.30;0.90;;;21.20;53.70;;;;;;5013733;28;20509;-61
2021/12/05 12:24:33;;;;;;;3.08;1.20;;;21.10;53.30;;;;;;5013816;28;20091;-61
2021/12/05 12:26:58;;;;;;;2.25;0.70;;;21.10;53.20;;;;;;5015055;28;20117;-62
2021/12/05 12:29:24;;;;;;;2.65;0.70;;;21.10;52.80;;;;;;4997268;28;20053;-61
2021/12/05 12:31:50;;;;;;;2.90;0.80;;;21.10;52.70;;;;;;5013835;28;20050;-61
2021/12/05 12:34:20;;;;;;;3.15;0.75;;;21.10;52.80;;;;;;5014770;28;20045;-61
2021/12/05 12:36:50;;;;;;;2.22;0.63;;;21.10;52.80;;;;;;5013970;28;20057;-61
2021/12/05 12:39:16;;;;;;;3.22;0.82;;;21.10;52.90;;;;;;5014840;28;20057;-61
2021/12/05 12:42:02;;;;;;;2.35;0.88;;;21.10;52.90;;;;;;4996758;28;20046;-61
2021/12/05 12:44:27;;;;;;;5.15;0.70;;;21.10;52.90;;;;;;5013208;28;20054;-61
2021/12/05 12:46:58;;;;;;;2.70;0.60;;;21.10;52.90;;;;;;5014521;28;20052;-61
2021/12/05 12:49:26;;;;;;;2.40;0.73;;;21.20;53.00;;;;;;5014700;28;20046;-61
2021/12/05 12:52:08;;;;;;;;;;;21.20;53.00;;;;;;5013998;28;20046;-61
2021/12/05 12:54:55;;;;;;;1.88;0.60;;;21.10;52.80;;;;;;4996758;28;19928;-61
2021/12/05 12:57:31;;;;;;;4.15;0.70;;;21.10;52.80;;;;;;5014620;28;20513;-61
2021/12/05 13:00:02;;;;;;;2.78;0.60;;;21.20;52.90;;;;;;4995197;28;20064;-61
2021/12/05 13:02:59;;;;;;;2.00;0.60;;;21.20;52.90;;;;;;5014617;28;20070;-61
2021/12/05 13:05:55;;;;;;;3.05;0.70;;;21.20;52.90;;;;;;5013073;28;20104;-61
2021/12/05 13:11:22;;;;;;;3.40;0.60;;;21.20;52.80;;;;;;5014062;28;20054;-62
2021/12/05 13:14:02;;;;;;;6.00;0.88;;;21.20;52.70;;;;;;5017285;28;20044;-60
2021/12/05 13:16:31;;;;;;;1.63;0.60;;;21.20;52.80;;;;;;5024673;28;20045;-60
2021/12/05 13:19:08;;;;;;;3.05;0.63;;;21.20;53.60;;;;;;5022373;28;20046;-60
2021/12/05 13:21:38;;;;;;;2.72;0.43;;;21.20;53.00;;;;;;5023296;28;20115;-61
2021/12/05 13:24:25;;;;;;;4.85;0.85;;;21.20;53.10;;;;;;5023808;28;20045;-60
2021/12/05 13:26:56;;;;;;;2.93;0.60;;;21.20;53.30;;;;;;5031087;28;20548;-61
2021/12/05 13:29:23;;;;;;;1.27;0.70;;;21.20;53.20;;;;;;5032714;28;20037;-60
2021/12/05 13:31:54;;;;;;;1.73;0.60;;;21.20;53.10;;;;;;5032500;28;20053;-61
2021/12/05 13:34:22;;;;;;;2.53;0.60;;;21.20;53.10;;;;;;5032433;28;20041;-60
2021/12/05 13:37:19;;;;;;;;;;;21.20;53.20;;;;;;5020677;28;20493;-60
2021/12/05 13:40:05;;;;;;;2.28;0.63;;;21.20;53.20;;;;;;5007831;28;20008;-61
2021/12/05 13:42:37;;;;;;;1.95;0.60;;;21.20;53.30;;;;;;5012987;28;20052;-60
2021/12/05 13:45:12;;;;;;;1.52;0.60;;;21.20;53.20;;;;;;5012893;28;20057;-61
2021/12/05 13:47:52;;;;;;;3.25;0.52;;;21.20;53.30;;;;;;4995106;28;20045;-61
2021/12/05 13:50:18;;;;;;;1.33;0.52;;;21.20;53.20;;;;;;5013284;28;20042;-61
2021/12/05 13:52:47;;;;;;;4.50;0.77;;;21.20;54.00;;;;;;5012711;28;20054;-61
2021/12/05 13:55:52;;;;;;;1.73;0.57;;;21.20;53.30;;;;;;5012170;28;20049;-61
2021/12/05 14:01:01;;;;;;;3.78;0.63;;;21.20;53.10;;;;;;5031313;28;20523;-61
2021/12/05 14:03:45;;;;;;;3.00;0.60;;;21.20;52.90;;;;;;5032865;28;20473;-61
2021/12/05 14:06:32;;;;;;;2.08;0.68;;;21.20;52.50;;;;;;5032831;28;20179;-61
2021/12/05 14:09:26;;;;;;;4.10;0.70;;;21.20;52.50;;;;;;5013649;28;20482;-61
2021/12/05 14:11:57;;;;;;;4.28;0.70;;;21.20;52.30;;;;;;5014851;28;20107;-61
2021/12/05 14:14:45;;;;;;;1.40;0.60;;;21.10;52.30;;;;;;5031921;28;20080;-60
2021/12/05 14:17:21;;;;;;;2.50;0.80;;;21.10;52.30;;;;;;5031322;28;20049;-60
2021/12/05 14:19:57;;;;;;;3.80;1.05;;;21.10;52.50;;;;;;5014401;28;20049;-61
2021/12/05 14:22:23;;;;;;;2.80;0.88;;;21.10;52.50;;;;;;5014013;28;20041;-62
2021/12/05 14:24:50;;;;;;;2.78;0.90;;;21.10;52.70;;;;;;5012548;28;20056;-61
2021/12/05 14:27:40;;;;;;;6.90;1.50;;;21.10;52.80;;;;;;5032441;28;20049;-61
2021/12/05 14:30:09;;;;;;;2.42;0.98;;;21.10;52.90;;;;;;5030775;28;20073;-61
2021/12/05 14:32:35;;;;;;;;;;;21.20;53.10;;;;;;5032910;28;20049;-61
2021/12/05 14:35:05;;;;;;;4.38;1.17;;;21.10;53.10;;;;;;5031864;28;20008;-61
2021/12/05 14:37:33;;;;;;;3.08;1.00;;;21.10;53.20;;;;;;5013265;28;20041;-61
2021/12/05 14:40:03;;;;;;;3.88;1.30;;;21.10;53.20;;;;;;5031824;28;20405;-61
2021/12/05 14:42:29;;;;;;;3.70;1.10;;;21.20;53.20;;;;;;5014840;28;20085;-61
2021/12/05 14:45:00;;;;;;;5.75;1.20;;;21.20;53.20;;;;;;5031010;28;20045;-61
2021/12/05 14:47:28;;;;;;;5.50;1.52;;;21.20;53.20;;;;;;5014484;28;20046;-61
2021/12/05 14:50:07;;;;;;;4.13;1.25;;;21.20;53.30;;;;;;5031641;28;20073;-60
2021/12/05 14:52:34;;;;;;;4.28;1.48;;;21.20;53.30;;;;;;5030861;28;20056;-61
2021/12/05 14:55:01;;;;;;;7.35;1.40;;;21.20;53.30;;;;;;4997526;28;20072;-61
2021/12/05 14:57:29;;;;;;;3.95;1.50;;;21.20;53.20;;;;;;5015694;28;20038;-60
2021/12/05 15:00:25;;;;;;;2.83;1.08;;;21.20;53.20;;;;;;5011502;28;20077;-61
2021/12/05 15:03:27;;;;;;;4.68;1.35;;;21.20;53.20;;;;;;5010476;28;20054;-61
2021/12/05 15:05:54;;;;;;;5.50;1.30;;;21.20;53.50;;;;;;4950667;29;20047;-61
2021/12/05 15:08:22;;;;;;;4.35;1.42;;;21.20;53.50;;;;;;5000265;28;20108;-61
2021/12/05 15:10:51;;;;;;;3.78;1.50;;;21.20;53.70;;;;;;5011707;28;20072;-61
2021/12/05 15:13:17;;;;;;;2.85;1.13;;;21.20;53.80;;;;;;4994392;28;20054;-61
2021/12/05 15:15:42;;;;;;;4.20;1.50;;;21.20;54.00;;;;;;5011695;28;20046;-61
2021/12/05 15:18:16;;;;;;;4.15;1.67;;;21.20;54.00;;;;;;5011735;28;20049;-61
2021/12/05 15:20:42;;;;;;;5.80;1.40;;;21.20;54.20;;;;;;5027696;28;20044;-62
2021/12/05 15:23:08;;;;;;;4.20;1.30;;;21.20;54.10;;;;;;5013389;28;20041;-61
2021/12/05 15:25:36;;;;;;;5.10;1.63;;;21.20;54.10;;;;;;4997780;28;20081;-61
2021/12/05 15:28:02;;;;;;;4.43;1.30;;;21.30;54.20;;;;;;5011553;28;20096;-61
2021/12/05 15:30:34;;;;;;;3.15;1.38;;;21.20;54.20;;;;;;5011773;28;20458;-61
2021/12/05 15:33:09;;;;;;;6.32;1.80;;;21.20;54.00;;;;;;5010528;28;20097;-61
2021/12/05 15:35:34;;;;;;;4.68;1.65;;;21.20;54.10;;;;;;5010900;28;20088;-61
2021/12/05 15:38:03;;;;;;;3.80;1.30;;;21.20;54.10;;;;;;5013186;28;20057;-61
2021/12/05 15:40:29;;;;;;;4.07;1.42;;;21.20;54.20;;;;;;5012899;28;20052;-61
2021/12/05 15:43:22;;;;;;;4.20;1.40;;;21.20;54.20;;;;;;5013236;28;20040;-61
2021/12/05 15:45:50;;;;;;;4.22;1.83;;;21.20;54.10;;;;;;5029144;28;20501;-62
2021/12/05 15:48:27;;;;;;;3.60;1.48;;;21.20;54.20;;;;;;4984290;28;20045;-62
2021/12/05 15:50:52;;;;;;;3.53;1.67;;;21.20;54.20;;;;;;5033051;28;20444;-62
2021/12/05 15:53:18;;;;;;;5.43;1.50;;;21.20;54.20;;;;;;5034311;28;20053;-61
2021/12/05 15:55:46;;;;;;;4.57;1.45;;;21.20;54.20;;;;;;5030808;28;20041;-61
2021/12/05 15:58:20;;;;;;;4.80;1.85;;;21.10;54.10;;;;;;5033933;28;20425;-61
2021/12/05 16:00:59;;;;;;;4.57;1.42;;;21.20;54.20;;;;;;4998724;28;20077;-62
2021/12/05 16:03:27;;;;;;;4.90;1.40;;;21.10;54.10;;;;;;5004224;28;20041;-62
2021/12/05 16:05:55;;;;;;;5.43;1.73;;;21.10;54.10;;;;;;5015956;28;20386;-62
2021/12/05 16:08:20;;;;;;;5.15;1.45;;;21.10;54.10;;;;;;5016347;28;20052;-63
2021/12/05 16:10:49;;;;;;;4.38;1.30;;;21.10;54.10;;;;;;5019165;28;20038;-61
2021/12/05 16:13:15;;;;;;;;;;;21.10;54.10;;;;;;5014269;28;20049;-61
2021/12/05 16:15:45;;;;;;;3.20;1.48;;;21.00;54.00;;;;;;5033355;28;19982;-62
2021/12/05 16:18:11;;;;;;;4.85;1.30;;;21.00;54.10;;;;;;5016999;28;20490;-61
2021/12/05 16:20:45;;;;;;;3.28;1.40;;;21.00;54.10;;;;;;5026689;28;20088;-61
2021/12/05 16:23:24;;;;;;;2.85;1.23;;;21.10;54.10;;;;;;5013905;28;20394;-62
2021/12/05 16:26:06;;;;;;;4.30;1.58;;;21.00;54.10;;;;;;5014280;28;20038;-61
2021/12/05 16:28:34;;;;;;;2.78;1.50;;;21.00;54.10;;;;;;5014625;28;20046;-60
2021/12/05 16:31:25;;;;;;;2.45;1.48;;;21.10;54.10;;;;;;5013222;28;20049;-61
2021/12/05 16:33:57;;;;;;;5.47;1.50;;;21.00;53.90;;;;;;5012592;28;20046;-62
2021/12/05 16:36:28;;;;;;;4.32;1.63;;;21.00;54.00;;;;;;5013277;28;20124;-62
2021/12/05 16:38:54;;;;;;;3.60;1.40;;;21.00;54.10;;;;;;5012073;28;20045;-62
2021/12/05 16:41:28;;;;;;;3.15;1.20;;;21.00;54.00;;;;;;5013404;28;20053;-62
2021/12/05 16:43:58;;;;;;;5.03;1.50;;;21.00;54.00;;;;;;5010994;28;20458;-62
2021/12/05 16:46:36;;;;;;;4.57;1.30;;;21.00;54.10;;;;;;5013146;28;20464;-62
2021/12/05 16:49:04;;;;;;;3.60;1.63;;;20.90;54.00;;;;;;5012657;28;20049;-62
2021/12/05 16:51:43;;;;;;;6.00;1.77;;;20.90;54.70;;;;;;5021117;28;20456;-62
2021/12/05 16:54:33;;;;;;;3.92;1.70;;;21.00;54.00;;;;;;5034081;28;20045;-61
2021/12/05 16:57:13;;;;;;;3.70;1.70;;;21.00;52.90;;;;;;5020744;28;20063;-61
2021/12/05 16:59:43;;;;;;;3.53;1.50;;;20.90;53.10;;;;;;5034067;28;20105;-61
2021/12/05 17:02:32;;;;;;;3.17;1.50;;;20.90;53.10;;;;;;5034171;28;20489;-62
2021/12/05 17:05:17;;;;;;;5.30;1.50;;;20.90;53.20;;;;;;5032945;28;20124;-62
2021/12/05 17:08:02;;;;;;;4.13;1.85;;;20.80;53.20;;;;;;5033646;28;20045;-62
2021/12/05 17:10:28;;;;;;;2.67;1.20;;;20.80;53.30;;;;;;5033871;28;20133;-61
2021/12/05 17:13:16;;;;;;;3.30;1.30;;;20.80;53.40;;;;;;5032862;28;20041;-61
2021/12/05 17:16:10;;;;;;;3.35;1.52;;;20.80;53.40;;;;;;5017610;28;20053;-62
2021/12/05 17:18:36;;;;;;;3.60;1.58;;;20.80;53.40;;;;;;5028274;28;20100;-61
2021/12/05 17:21:17;;;;;;;2.83;1.42;;;20.80;53.50;;;;;;5033090;28;20081;-60
2021/12/05 17:24:05;;;;;;;3.75;1.58;;;20.80;53.60;;;;;;5033287;28;20047;-61
2021/12/05 17:26:35;;;;;;;3.70;1.52;;;20.80;53.50;;;;;;5032092;28;20405;-62
2021/12/05 17:29:17;;;;;;;4.20;1.42;;;20.80;53.60;;;;;;5032854;28;20124;-63
2021/12/05 17:31:48;;;;;;;4.57;1.70;;;20.80;53.70;;;;;;5015040;28;20072;-63
2021/12/05 17:34:19;;;;;;;3.72;1.40;;;20.80;53.80;;;;;;5032783;28;20485;-63
2021/12/05 17:36:50;;;;;;;4.05;1.45;;;20.80;53.90;;;;;;5032632;28;20073;-63
2021/12/05 17:39:21;;;;;;;3.38;1.40;;;20.80;53.90;;;;;;5003493;28;20053;-61
2021/12/05 17:41:48;;;;;;;3.95;1.77;;;20.80;53.90;;;;;;5013003;28;20160;-61
2021/12/05 17:44:15;;;;;;;5.80;1.67;;;20.80;53.90;;;;;;5013188;28;20068;-61
2021/12/05 17:46:41;;;;;;;5.38;1.73;;;20.80;54.00;;;;;;4996095;28;20050;-61
2021/12/05 17:49:08;;;;;;;5.10;1.48;;;20.90;54.00;;;;;;4998080;28;20048;-61
2021/12/05 17:51:37;;;;;;;3.13;1.42;;;20.90;54.00;;;;;;5032097;28;20049;-61
2021/12/05 17:54:05;;;;;;;6.05;1.50;;;20.90;54.00;;;;;;4996825;28;20038;-62
2021/12/05 17:56:39;;;;;;;7.78;1.75;;;20.90;54.00;;;;;;5018352;28;20045;-61